sensor_id;sensor_type;location;lat;lon;timestamp;P1;durP1;ratioP1;P2;durP2;ratioP2
68050;SDS011;54839;51.364;7.246;2023-09-12T00:00:07;9.37;;;8.57;;
68050;SDS011;54839;51.364;7.246;2023-09-12T00:02:34;9.43;;;7.50;;
68050;SDS011;54839;51.364;7.246;2023-09-12T00:04:59;6.70;;;6.20;;
68050;SDS011;54839;51.364;7.246;2023-09-12T00:07:25;8.13;;;7.53;;
68050;SDS011;54839;51.364;7.246;2023-09-12T00:09:50;7.03;;;6.43;;
68050;SDS011;54839;51.364;7.246;2023-09-12T00:12:16;6.77;;;6.17;;
68050;SDS011;54839;51.364;7.246;2023-09-12T00:14:41;6.70;;;6.10;;
68050;SDS011;54839;51.364;7.246;2023-09-12T00:17:08;5.97;;;5.37;;
68050;SDS011;54839;51.364;7.246;2023-09-12T00:19:34;6.50;;;5.73;;
68050;SDS011;54839;51.364;7.246;2023-09-12T00:22:00;8.17;;;6.40;;
68050;SDS011;54839;51.364;7.246;2023-09-12T00:24:25;7.43;;;6.67;;
68050;SDS011;54839;51.364;7.246;2023-09-12T00:26:51;5.07;;;4.73;;
68050;SDS011;54839;51.364;7.246;2023-09-12T00:29:16;5.80;;;5.40;;
68050;SDS011;54839;51.364;7.246;2023-09-12T00:31:42;5.10;;;4.70;;
68050;SDS011;54839;51.364;7.246;2023-09-12T00:34:08;6.00;;;5.50;;
68050;SDS011;54839;51.364;7.246;2023-09-12T00:36:33;5.53;;;5.00;;
68050;SDS011;54839;51.364;7.246;2023-09-12T00:38:59;4.70;;;4.30;;
68050;SDS011;54839;51.364;7.246;2023-09-12T00:41:24;5.20;;;4.80;;
68050;SDS011;54839;51.364;7.246;2023-09-12T00:43:50;4.70;;;4.30;;
68050;SDS011;54839;51.364;7.246;2023-09-12T00:46:18;6.23;;;4.20;;
68050;SDS011;54839;51.364;7.246;2023-09-12T00:48:44;4.20;;;3.80;;
68050;SDS011;54839;51.364;7.246;2023-09-12T00:51:11;5.73;;;5.23;;
68050;SDS011;54839;51.364;7.246;2023-09-12T00:53:37;3.63;;;3.33;;
68050;SDS011;54839;51.364;7.246;2023-09-12T00:56:03;4.60;;;4.30;;
68050;SDS011;54839;51.364;7.246;2023-09-12T00:58:29;6.07;;;4.63;;
68050;SDS011;54839;51.364;7.246;2023-09-12T01:00:55;4.70;;;4.30;;
68050;SDS011;54839;51.364;7.246;2023-09-12T01:03:21;3.83;;;3.53;;
68050;SDS011;54839;51.364;7.246;2023-09-12T01:05:47;4.60;;;4.20;;
68050;SDS011;54839;51.364;7.246;2023-09-12T01:08:13;5.07;;;4.67;;
68050;SDS011;54839;51.364;7.246;2023-09-12T01:10:38;5.00;;;4.53;;
68050;SDS011;54839;51.364;7.246;2023-09-12T01:13:04;4.30;;;3.90;;
68050;SDS011;54839;51.364;7.246;2023-09-12T01:15:30;4.33;;;3.53;;
68050;SDS011;54839;51.364;7.246;2023-09-12T01:17:56;3.93;;;3.63;;
68050;SDS011;54839;51.364;7.246;2023-09-12T01:20:24;5.23;;;3.90;;
68050;SDS011;54839;51.364;7.246;2023-09-12T01:28:28;3.77;;;3.33;;
68050;SDS011;54839;51.364;7.246;2023-09-12T01:30:56;4.77;;;4.37;;
68050;SDS011;54839;51.364;7.246;2023-09-12T01:33:23;6.20;;;5.23;;
68050;SDS011;54839;51.364;7.246;2023-09-12T01:35:49;5.93;;;5.33;;
68050;SDS011;54839;51.364;7.246;2023-09-12T01:38:15;5.33;;;4.83;;
68050;SDS011;54839;51.364;7.246;2023-09-12T01:40:46;4.97;;;4.60;;
68050;SDS011;54839;51.364;7.246;2023-09-12T01:43:18;5.27;;;4.77;;
68050;SDS011;54839;51.364;7.246;2023-09-12T01:45:45;5.73;;;4.80;;
68050;SDS011;54839;51.364;7.246;2023-09-12T01:48:14;4.43;;;4.10;;
68050;SDS011;54839;51.364;7.246;2023-09-12T01:50:45;4.87;;;4.47;;
68050;SDS011;54839;51.364;7.246;2023-09-12T01:53:11;5.57;;;5.03;;
68050;SDS011;54839;51.364;7.246;2023-09-12T01:55:39;4.50;;;4.20;;
68050;SDS011;54839;51.364;7.246;2023-09-12T01:58:06;5.63;;;5.13;;
68050;SDS011;54839;51.364;7.246;2023-09-12T02:00:33;5.80;;;5.27;;
68050;SDS011;54839;51.364;7.246;2023-09-12T02:02:59;7.73;;;5.33;;
68050;SDS011;54839;51.364;7.246;2023-09-12T02:05:24;4.80;;;4.40;;
68050;SDS011;54839;51.364;7.246;2023-09-12T02:07:51;5.67;;;4.17;;
68050;SDS011;54839;51.364;7.246;2023-09-12T02:10:16;7.80;;;6.83;;
68050;SDS011;54839;51.364;7.246;2023-09-12T02:12:42;8.33;;;6.03;;
68050;SDS011;54839;51.364;7.246;2023-09-12T02:15:07;9.03;;;8.17;;
68050;SDS011;54839;51.364;7.246;2023-09-12T02:17:33;9.07;;;7.83;;
68050;SDS011;54839;51.364;7.246;2023-09-12T02:19:59;7.67;;;6.97;;
68050;SDS011;54839;51.364;7.246;2023-09-12T02:22:25;9.60;;;8.70;;
68050;SDS011;54839;51.364;7.246;2023-09-12T02:24:50;9.33;;;7.70;;
68050;SDS011;54839;51.364;7.246;2023-09-12T02:27:16;8.23;;;7.50;;
68050;SDS011;54839;51.364;7.246;2023-09-12T02:29:42;11.70;;;8.63;;
68050;SDS011;54839;51.364;7.246;2023-09-12T02:32:08;11.07;;;9.57;;
68050;SDS011;54839;51.364;7.246;2023-09-12T02:34:34;10.60;;;9.50;;
68050;SDS011;54839;51.364;7.246;2023-09-12T02:37:00;10.53;;;9.43;;
68050;SDS011;54839;51.364;7.246;2023-09-12T02:39:25;11.23;;;10.10;;
68050;SDS011;54839;51.364;7.246;2023-09-12T02:41:51;11.10;;;9.67;;
68050;SDS011;54839;51.364;7.246;2023-09-12T02:44:17;12.40;;;9.80;;
68050;SDS011;54839;51.364;7.246;2023-09-12T02:46:42;12.30;;;9.67;;
68050;SDS011;54839;51.364;7.246;2023-09-12T02:49:08;12.10;;;9.57;;
68050;SDS011;54839;51.364;7.246;2023-09-12T02:51:38;12.53;;;11.23;;
68050;SDS011;54839;51.364;7.246;2023-09-12T02:54:04;16.60;;;11.70;;
68050;SDS011;54839;51.364;7.246;2023-09-12T02:56:30;13.97;;;11.20;;
68050;SDS011;54839;51.364;7.246;2023-09-12T02:58:56;12.73;;;11.43;;
68050;SDS011;54839;51.364;7.246;2023-09-12T03:01:21;14.33;;;12.57;;
68050;SDS011;54839;51.364;7.246;2023-09-12T03:03:47;13.87;;;12.47;;
68050;SDS011;54839;51.364;7.246;2023-09-12T03:06:13;14.67;;;13.17;;
68050;SDS011;54839;51.364;7.246;2023-09-12T03:08:40;16.63;;;14.93;;
68050;SDS011;54839;51.364;7.246;2023-09-12T03:11:05;15.50;;;14.10;;
68050;SDS011;54839;51.364;7.246;2023-09-12T03:13:32;17.73;;;15.03;;
68050;SDS011;54839;51.364;7.246;2023-09-12T03:15:58;14.67;;;13.30;;
68050;SDS011;54839;51.364;7.246;2023-09-12T03:18:24;18.60;;;13.80;;
68050;SDS011;54839;51.364;7.246;2023-09-12T03:20:50;16.20;;;14.20;;
68050;SDS011;54839;51.364;7.246;2023-09-12T03:23:15;13.00;;;11.83;;
68050;SDS011;54839;51.364;7.246;2023-09-12T03:25:41;14.57;;;13.13;;
68050;SDS011;54839;51.364;7.246;2023-09-12T03:28:06;13.63;;;12.33;;
68050;SDS011;54839;51.364;7.246;2023-09-12T03:30:33;12.70;;;11.10;;
68050;SDS011;54839;51.364;7.246;2023-09-12T03:33:00;14.77;;;11.63;;
68050;SDS011;54839;51.364;7.246;2023-09-12T03:35:25;11.83;;;10.83;;
68050;SDS011;54839;51.364;7.246;2023-09-12T03:37:51;11.20;;;9.30;;
68050;SDS011;54839;51.364;7.246;2023-09-12T03:40:17;12.93;;;11.23;;
68050;SDS011;54839;51.364;7.246;2023-09-12T03:42:42;13.47;;;12.10;;
68050;SDS011;54839;51.364;7.246;2023-09-12T03:45:08;11.83;;;10.60;;
68050;SDS011;54839;51.364;7.246;2023-09-12T03:47:34;11.57;;;10.27;;
68050;SDS011;54839;51.364;7.246;2023-09-12T03:50:00;13.53;;;12.20;;
68050;SDS011;54839;51.364;7.246;2023-09-12T03:52:25;11.03;;;10.03;;
68050;SDS011;54839;51.364;7.246;2023-09-12T03:54:51;10.70;;;9.13;;
68050;SDS011;54839;51.364;7.246;2023-09-12T03:57:16;11.93;;;9.63;;
68050;SDS011;54839;51.364;7.246;2023-09-12T03:59:42;10.37;;;9.23;;
68050;SDS011;54839;51.364;7.246;2023-09-12T04:02:08;10.77;;;8.73;;
68050;SDS011;54839;51.364;7.246;2023-09-12T04:04:33;12.10;;;9.23;;
68050;SDS011;54839;51.364;7.246;2023-09-12T04:06:59;12.03;;;8.67;;
68050;SDS011;54839;51.364;7.246;2023-09-12T04:09:25;12.10;;;8.47;;
68050;SDS011;54839;51.364;7.246;2023-09-12T04:11:50;8.53;;;7.73;;
68050;SDS011;54839;51.364;7.246;2023-09-12T04:14:16;14.03;;;9.23;;
68050;SDS011;54839;51.364;7.246;2023-09-12T04:16:41;9.73;;;8.83;;
68050;SDS011;54839;51.364;7.246;2023-09-12T04:19:07;9.90;;;8.93;;
68050;SDS011;54839;51.364;7.246;2023-09-12T04:21:32;10.00;;;9.00;;
68050;SDS011;54839;51.364;7.246;2023-09-12T04:23:58;11.17;;;8.67;;
68050;SDS011;54839;51.364;7.246;2023-09-12T04:26:23;9.80;;;8.80;;
68050;SDS011;54839;51.364;7.246;2023-09-12T04:28:49;10.37;;;8.57;;
68050;SDS011;54839;51.364;7.246;2023-09-12T04:31:15;10.33;;;9.50;;
68050;SDS011;54839;51.364;7.246;2023-09-12T04:33:40;11.63;;;8.87;;
68050;SDS011;54839;51.364;7.246;2023-09-12T04:36:06;10.03;;;9.13;;
68050;SDS011;54839;51.364;7.246;2023-09-12T04:38:31;10.87;;;9.30;;
68050;SDS011;54839;51.364;7.246;2023-09-12T04:40:59;11.30;;;10.10;;
68050;SDS011;54839;51.364;7.246;2023-09-12T04:43:31;10.63;;;9.53;;
68050;SDS011;54839;51.364;7.246;2023-09-12T04:45:56;10.13;;;9.23;;
68050;SDS011;54839;51.364;7.246;2023-09-12T04:48:22;10.83;;;8.90;;
68050;SDS011;54839;51.364;7.246;2023-09-12T04:50:48;11.37;;;10.23;;
68050;SDS011;54839;51.364;7.246;2023-09-12T04:53:14;11.20;;;9.67;;
68050;SDS011;54839;51.364;7.246;2023-09-12T04:55:39;9.83;;;8.93;;
68050;SDS011;54839;51.364;7.246;2023-09-12T04:58:05;14.50;;;11.00;;
68050;SDS011;54839;51.364;7.246;2023-09-12T05:00:31;13.20;;;10.37;;
68050;SDS011;54839;51.364;7.246;2023-09-12T05:02:57;10.87;;;9.40;;
68050;SDS011;54839;51.364;7.246;2023-09-12T05:05:23;14.17;;;9.47;;
68050;SDS011;54839;51.364;7.246;2023-09-12T05:07:49;11.80;;;10.70;;
68050;SDS011;54839;51.364;7.246;2023-09-12T05:10:16;14.10;;;10.70;;
68050;SDS011;54839;51.364;7.246;2023-09-12T05:12:41;11.60;;;10.50;;
68050;SDS011;54839;51.364;7.246;2023-09-12T05:15:07;12.97;;;10.90;;
68050;SDS011;54839;51.364;7.246;2023-09-12T05:17:33;10.90;;;9.80;;
68050;SDS011;54839;51.364;7.246;2023-09-12T05:19:58;10.97;;;9.97;;
68050;SDS011;54839;51.364;7.246;2023-09-12T05:22:24;9.87;;;8.97;;
68050;SDS011;54839;51.364;7.246;2023-09-12T05:24:49;10.70;;;9.57;;
68050;SDS011;54839;51.364;7.246;2023-09-12T05:27:15;10.63;;;9.63;;
68050;SDS011;54839;51.364;7.246;2023-09-12T05:29:42;9.60;;;8.77;;
68050;SDS011;54839;51.364;7.246;2023-09-12T05:32:07;11.33;;;10.33;;
68050;SDS011;54839;51.364;7.246;2023-09-12T05:34:33;10.67;;;9.60;;
68050;SDS011;54839;51.364;7.246;2023-09-12T05:36:58;11.70;;;10.50;;
68050;SDS011;54839;51.364;7.246;2023-09-12T05:39:24;12.37;;;10.83;;
68050;SDS011;54839;51.364;7.246;2023-09-12T05:41:49;12.10;;;10.90;;
68050;SDS011;54839;51.364;7.246;2023-09-12T05:44:15;12.43;;;11.20;;
68050;SDS011;54839;51.364;7.246;2023-09-12T05:46:44;15.33;;;11.00;;
68050;SDS011;54839;51.364;7.246;2023-09-12T05:49:11;14.47;;;11.57;;
68050;SDS011;54839;51.364;7.246;2023-09-12T05:51:36;14.90;;;13.23;;
68050;SDS011;54839;51.364;7.246;2023-09-12T05:54:02;11.77;;;10.53;;
68050;SDS011;54839;51.364;7.246;2023-09-12T05:56:28;15.17;;;11.43;;
68050;SDS011;54839;51.364;7.246;2023-09-12T05:58:54;14.00;;;12.60;;
68050;SDS011;54839;51.364;7.246;2023-09-12T06:01:19;11.67;;;10.43;;
68050;SDS011;54839;51.364;7.246;2023-09-12T06:03:45;10.57;;;9.57;;
68050;SDS011;54839;51.364;7.246;2023-09-12T06:06:10;11.80;;;10.60;;
68050;SDS011;54839;51.364;7.246;2023-09-12T06:08:37;11.10;;;10.20;;
68050;SDS011;54839;51.364;7.246;2023-09-12T06:11:03;12.23;;;11.13;;
68050;SDS011;54839;51.364;7.246;2023-09-12T06:13:29;10.17;;;9.17;;
68050;SDS011;54839;51.364;7.246;2023-09-12T06:15:55;12.27;;;11.20;;
68050;SDS011;54839;51.364;7.246;2023-09-12T06:18:20;13.77;;;10.20;;
68050;SDS011;54839;51.364;7.246;2023-09-12T06:20:46;10.93;;;9.83;;
68050;SDS011;54839;51.364;7.246;2023-09-12T06:23:12;12.47;;;11.00;;
68050;SDS011;54839;51.364;7.246;2023-09-12T06:25:37;11.70;;;9.67;;
68050;SDS011;54839;51.364;7.246;2023-09-12T06:28:03;11.13;;;10.10;;
68050;SDS011;54839;51.364;7.246;2023-09-12T06:30:29;12.63;;;11.30;;
68050;SDS011;54839;51.364;7.246;2023-09-12T06:32:54;13.77;;;12.43;;
68050;SDS011;54839;51.364;7.246;2023-09-12T06:35:20;14.63;;;13.10;;
68050;SDS011;54839;51.364;7.246;2023-09-12T06:37:45;11.47;;;10.27;;
68050;SDS011;54839;51.364;7.246;2023-09-12T06:40:12;11.70;;;9.50;;
68050;SDS011;54839;51.364;7.246;2023-09-12T06:42:37;12.63;;;11.33;;
68050;SDS011;54839;51.364;7.246;2023-09-12T06:45:03;12.03;;;9.73;;
68050;SDS011;54839;51.364;7.246;2023-09-12T06:47:29;11.00;;;10.00;;
68050;SDS011;54839;51.364;7.246;2023-09-12T06:49:54;13.17;;;8.60;;
68050;SDS011;54839;51.364;7.246;2023-09-12T06:52:20;10.47;;;9.57;;
68050;SDS011;54839;51.364;7.246;2023-09-12T06:54:46;8.90;;;8.10;;
68050;SDS011;54839;51.364;7.246;2023-09-12T06:57:11;11.43;;;10.33;;
68050;SDS011;54839;51.364;7.246;2023-09-12T06:59:37;10.43;;;9.10;;
68050;SDS011;54839;51.364;7.246;2023-09-12T07:02:02;11.13;;;10.00;;
68050;SDS011;54839;51.364;7.246;2023-09-12T07:04:29;11.47;;;10.43;;
68050;SDS011;54839;51.364;7.246;2023-09-12T07:06:54;14.77;;;13.27;;
68050;SDS011;54839;51.364;7.246;2023-09-12T07:09:20;11.63;;;10.53;;
68050;SDS011;54839;51.364;7.246;2023-09-12T07:11:46;16.20;;;12.90;;
68050;SDS011;54839;51.364;7.246;2023-09-12T07:14:12;10.87;;;9.87;;
68050;SDS011;54839;51.364;7.246;2023-09-12T07:16:38;14.73;;;13.33;;
68050;SDS011;54839;51.364;7.246;2023-09-12T07:19:04;11.73;;;10.27;;
68050;SDS011;54839;51.364;7.246;2023-09-12T07:21:31;10.10;;;9.10;;
68050;SDS011;54839;51.364;7.246;2023-09-12T07:23:57;8.27;;;7.57;;
68050;SDS011;54839;51.364;7.246;2023-09-12T07:26:22;13.53;;;9.70;;
68050;SDS011;54839;51.364;7.246;2023-09-12T07:28:48;17.70;;;12.60;;
68050;SDS011;54839;51.364;7.246;2023-09-12T07:31:14;11.10;;;9.93;;
68050;SDS011;54839;51.364;7.246;2023-09-12T07:33:39;11.23;;;10.00;;
68050;SDS011;54839;51.364;7.246;2023-09-12T07:36:06;13.80;;;9.70;;
68050;SDS011;54839;51.364;7.246;2023-09-12T07:38:31;12.90;;;11.47;;
68050;SDS011;54839;51.364;7.246;2023-09-12T07:41:00;12.50;;;11.37;;
68050;SDS011;54839;51.364;7.246;2023-09-12T07:43:26;15.20;;;12.87;;
68050;SDS011;54839;51.364;7.246;2023-09-12T07:45:56;11.63;;;10.43;;
68050;SDS011;54839;51.364;7.246;2023-09-12T07:48:22;11.33;;;10.30;;
68050;SDS011;54839;51.364;7.246;2023-09-12T07:50:47;11.13;;;10.10;;
68050;SDS011;54839;51.364;7.246;2023-09-12T07:53:14;11.03;;;10.10;;
68050;SDS011;54839;51.364;7.246;2023-09-12T07:55:39;12.03;;;10.93;;
68050;SDS011;54839;51.364;7.246;2023-09-12T07:58:12;11.87;;;10.70;;
68050;SDS011;54839;51.364;7.246;2023-09-12T08:00:38;12.47;;;10.47;;
68050;SDS011;54839;51.364;7.246;2023-09-12T08:03:04;11.73;;;10.53;;
68050;SDS011;54839;51.364;7.246;2023-09-12T08:05:29;12.03;;;9.97;;
68050;SDS011;54839;51.364;7.246;2023-09-12T08:07:55;10.70;;;9.70;;
68050;SDS011;54839;51.364;7.246;2023-09-12T08:10:20;14.10;;;10.17;;
68050;SDS011;54839;51.364;7.246;2023-09-12T08:12:46;14.80;;;10.20;;
68050;SDS011;54839;51.364;7.246;2023-09-12T08:15:11;10.73;;;9.60;;
68050;SDS011;54839;51.364;7.246;2023-09-12T08:17:37;12.60;;;11.40;;
68050;SDS011;54839;51.364;7.246;2023-09-12T08:20:04;11.40;;;9.27;;
68050;SDS011;54839;51.364;7.246;2023-09-12T08:22:31;10.27;;;9.37;;
68050;SDS011;54839;51.364;7.246;2023-09-12T08:24:56;11.20;;;9.80;;
68050;SDS011;54839;51.364;7.246;2023-09-12T08:27:22;9.40;;;8.60;;
68050;SDS011;54839;51.364;7.246;2023-09-12T08:29:48;10.80;;;9.50;;
68050;SDS011;54839;51.364;7.246;2023-09-12T08:32:14;9.60;;;8.80;;
68050;SDS011;54839;51.364;7.246;2023-09-12T08:34:39;9.70;;;8.30;;
68050;SDS011;54839;51.364;7.246;2023-09-12T08:37:05;10.93;;;9.83;;
68050;SDS011;54839;51.364;7.246;2023-09-12T08:39:40;10.53;;;8.70;;
68050;SDS011;54839;51.364;7.246;2023-09-12T08:42:08;11.50;;;8.40;;
68050;SDS011;54839;51.364;7.246;2023-09-12T08:44:37;9.50;;;8.80;;
68050;SDS011;54839;51.364;7.246;2023-09-12T08:47:03;8.33;;;7.53;;
68050;SDS011;54839;51.364;7.246;2023-09-12T08:49:33;8.90;;;8.00;;
68050;SDS011;54839;51.364;7.246;2023-09-12T08:52:00;10.30;;;9.40;;
68050;SDS011;54839;51.364;7.246;2023-09-12T08:54:26;10.13;;;8.93;;
68050;SDS011;54839;51.364;7.246;2023-09-12T08:56:51;10.17;;;8.80;;
68050;SDS011;54839;51.364;7.246;2023-09-12T08:59:18;10.43;;;9.53;;
68050;SDS011;54839;51.364;7.246;2023-09-12T09:01:44;9.00;;;8.30;;
68050;SDS011;54839;51.364;7.246;2023-09-12T09:04:11;8.83;;;8.03;;
68050;SDS011;54839;51.364;7.246;2023-09-12T09:06:37;10.60;;;9.60;;
68050;SDS011;54839;51.364;7.246;2023-09-12T09:09:05;10.80;;;9.77;;
68050;SDS011;54839;51.364;7.246;2023-09-12T09:11:33;15.10;;;9.40;;
68050;SDS011;54839;51.364;7.246;2023-09-12T09:13:59;11.23;;;10.23;;
68050;SDS011;54839;51.364;7.246;2023-09-12T09:16:27;11.10;;;10.10;;
68050;SDS011;54839;51.364;7.246;2023-09-12T09:21:24;9.83;;;7.63;;
68050;SDS011;54839;51.364;7.246;2023-09-12T09:23:52;8.53;;;7.73;;
68050;SDS011;54839;51.364;7.246;2023-09-12T09:26:18;9.70;;;8.80;;
68050;SDS011;54839;51.364;7.246;2023-09-12T09:28:45;12.30;;;8.43;;
68050;SDS011;54839;51.364;7.246;2023-09-12T09:31:11;10.77;;;9.87;;
68050;SDS011;54839;51.364;7.246;2023-09-12T09:33:41;9.47;;;8.23;;
68050;SDS011;54839;51.364;7.246;2023-09-12T09:36:13;8.80;;;8.00;;
68050;SDS011;54839;51.364;7.246;2023-09-12T09:38:39;8.60;;;7.90;;
68050;SDS011;54839;51.364;7.246;2023-09-12T09:41:06;8.03;;;7.23;;
68050;SDS011;54839;51.364;7.246;2023-09-12T09:43:31;8.57;;;7.90;;
68050;SDS011;54839;51.364;7.246;2023-09-12T09:45:58;7.50;;;6.83;;
68050;SDS011;54839;51.364;7.246;2023-09-12T09:48:24;8.93;;;7.10;;
68050;SDS011;54839;51.364;7.246;2023-09-12T09:50:52;7.33;;;6.73;;
68050;SDS011;54839;51.364;7.246;2023-09-12T09:53:21;7.57;;;6.87;;
68050;SDS011;54839;51.364;7.246;2023-09-12T09:55:51;6.73;;;6.10;;
68050;SDS011;54839;51.364;7.246;2023-09-12T09:58:17;6.47;;;5.37;;
68050;SDS011;54839;51.364;7.246;2023-09-12T10:00:42;5.43;;;4.93;;
68050;SDS011;54839;51.364;7.246;2023-09-12T10:03:08;5.60;;;5.10;;
68050;SDS011;54839;51.364;7.246;2023-09-12T10:05:37;6.00;;;5.60;;
68050;SDS011;54839;51.364;7.246;2023-09-12T10:08:02;6.97;;;5.73;;
68050;SDS011;54839;51.364;7.246;2023-09-12T10:10:31;5.30;;;4.67;;
68050;SDS011;54839;51.364;7.246;2023-09-12T10:12:59;6.73;;;5.77;;
68050;SDS011;54839;51.364;7.246;2023-09-12T10:15:29;6.80;;;6.20;;
68050;SDS011;54839;51.364;7.246;2023-09-12T10:17:56;7.60;;;6.90;;
68050;SDS011;54839;51.364;7.246;2023-09-12T10:20:33;7.57;;;6.97;;
68050;SDS011;54839;51.364;7.246;2023-09-12T10:23:04;7.57;;;6.87;;
68050;SDS011;54839;51.364;7.246;2023-09-12T10:25:36;7.60;;;6.90;;
68050;SDS011;54839;51.364;7.246;2023-09-12T10:28:03;6.33;;;5.70;;
68050;SDS011;54839;51.364;7.246;2023-09-12T10:30:30;7.20;;;6.63;;
68050;SDS011;54839;51.364;7.246;2023-09-12T10:32:56;6.23;;;5.73;;
68050;SDS011;54839;51.364;7.246;2023-09-12T10:35:22;6.33;;;5.73;;
68050;SDS011;54839;51.364;7.246;2023-09-12T10:37:48;6.27;;;5.73;;
68050;SDS011;54839;51.364;7.246;2023-09-12T10:40:15;7.27;;;6.77;;
68050;SDS011;54839;51.364;7.246;2023-09-12T10:42:42;6.80;;;6.20;;
68050;SDS011;54839;51.364;7.246;2023-09-12T10:45:09;7.60;;;6.90;;
68050;SDS011;54839;51.364;7.246;2023-09-12T10:47:35;6.80;;;6.20;;
68050;SDS011;54839;51.364;7.246;2023-09-12T10:50:02;9.07;;;6.70;;
68050;SDS011;54839;51.364;7.246;2023-09-12T10:52:28;6.60;;;5.97;;
68050;SDS011;54839;51.364;7.246;2023-09-12T10:54:54;8.30;;;7.50;;
68050;SDS011;54839;51.364;7.246;2023-09-12T10:57:20;10.80;;;8.50;;
68050;SDS011;54839;51.364;7.246;2023-09-12T11:00:08;6.80;;;6.20;;
68050;SDS011;54839;51.364;7.246;2023-09-12T11:02:42;8.57;;;6.50;;
68050;SDS011;54839;51.364;7.246;2023-09-12T11:07:55;6.83;;;5.77;;
68050;SDS011;54839;51.364;7.246;2023-09-12T11:10:26;7.40;;;5.67;;
68050;SDS011;54839;51.364;7.246;2023-09-12T11:12:53;7.57;;;5.50;;
68050;SDS011;54839;51.364;7.246;2023-09-12T11:15:21;6.70;;;6.10;;
68050;SDS011;54839;51.364;7.246;2023-09-12T11:17:49;7.00;;;6.43;;
68050;SDS011;54839;51.364;7.246;2023-09-12T11:20:24;8.80;;;7.10;;
68050;SDS011;54839;51.364;7.246;2023-09-12T11:22:49;9.00;;;6.13;;
68050;SDS011;54839;51.364;7.246;2023-09-12T11:25:19;8.07;;;6.73;;
68050;SDS011;54839;51.364;7.246;2023-09-12T11:30:16;8.53;;;6.23;;
68050;SDS011;54839;51.364;7.246;2023-09-12T11:32:54;8.47;;;7.63;;
68050;SDS011;54839;51.364;7.246;2023-09-12T11:35:27;12.03;;;11.00;;
68050;SDS011;54839;51.364;7.246;2023-09-12T11:37:54;7.70;;;7.00;;
68050;SDS011;54839;51.364;7.246;2023-09-12T11:40:26;8.67;;;7.40;;
68050;SDS011;54839;51.364;7.246;2023-09-12T11:42:58;6.13;;;5.63;;
68050;SDS011;54839;51.364;7.246;2023-09-12T11:45:23;8.37;;;6.63;;
68050;SDS011;54839;51.364;7.246;2023-09-12T11:47:49;8.07;;;7.37;;
68050;SDS011;54839;51.364;7.246;2023-09-12T11:53:10;8.27;;;6.77;;
68050;SDS011;54839;51.364;7.246;2023-09-12T11:55:37;8.33;;;7.67;;
68050;SDS011;54839;51.364;7.246;2023-09-12T11:58:13;7.80;;;7.10;;
68050;SDS011;54839;51.364;7.246;2023-09-12T12:00:50;6.97;;;6.37;;
68050;SDS011;54839;51.364;7.246;2023-09-12T12:03:22;8.00;;;6.40;;
68050;SDS011;54839;51.364;7.246;2023-09-12T12:05:49;6.87;;;6.27;;
68050;SDS011;54839;51.364;7.246;2023-09-12T12:08:16;6.80;;;6.30;;
68050;SDS011;54839;51.364;7.246;2023-09-12T12:10:43;6.53;;;5.90;;
68050;SDS011;54839;51.364;7.246;2023-09-12T12:13:12;7.43;;;6.73;;
68050;SDS011;54839;51.364;7.246;2023-09-12T12:15:41;12.40;;;11.20;;
68050;SDS011;54839;51.364;7.246;2023-09-12T12:18:07;8.70;;;6.90;;
68050;SDS011;54839;51.364;7.246;2023-09-12T12:20:32;6.97;;;6.43;;
68050;SDS011;54839;51.364;7.246;2023-09-12T12:22:58;7.70;;;7.00;;
68050;SDS011;54839;51.364;7.246;2023-09-12T12:25:24;7.00;;;6.37;;
68050;SDS011;54839;51.364;7.246;2023-09-12T12:27:49;13.07;;;6.13;;
68050;SDS011;54839;51.364;7.246;2023-09-12T12:30:15;8.10;;;7.30;;
68050;SDS011;54839;51.364;7.246;2023-09-12T12:32:44;7.67;;;6.87;;
68050;SDS011;54839;51.364;7.246;2023-09-12T12:35:20;6.50;;;5.90;;
68050;SDS011;54839;51.364;7.246;2023-09-12T12:37:50;8.20;;;7.60;;
68050;SDS011;54839;51.364;7.246;2023-09-12T12:40:19;7.33;;;6.67;;
68050;SDS011;54839;51.364;7.246;2023-09-12T12:42:45;7.43;;;6.77;;
68050;SDS011;54839;51.364;7.246;2023-09-12T12:45:23;7.37;;;6.67;;
68050;SDS011;54839;51.364;7.246;2023-09-12T12:47:59;7.70;;;6.90;;
68050;SDS011;54839;51.364;7.246;2023-09-12T12:50:25;7.57;;;5.87;;
68050;SDS011;54839;51.364;7.246;2023-09-12T12:52:51;6.37;;;5.90;;
68050;SDS011;54839;51.364;7.246;2023-09-12T12:55:17;7.33;;;5.97;;
68050;SDS011;54839;51.364;7.246;2023-09-12T12:57:47;6.10;;;5.60;;
68050;SDS011;54839;51.364;7.246;2023-09-12T13:00:16;6.80;;;6.00;;
68050;SDS011;54839;51.364;7.246;2023-09-12T13:02:43;5.50;;;5.10;;
68050;SDS011;54839;51.364;7.246;2023-09-12T13:07:54;7.13;;;6.43;;
68050;SDS011;54839;51.364;7.246;2023-09-12T13:10:20;7.30;;;6.80;;
68050;SDS011;54839;51.364;7.246;2023-09-12T13:12:47;6.70;;;6.10;;
68050;SDS011;54839;51.364;7.246;2023-09-12T13:15:13;6.57;;;5.93;;
68050;SDS011;54839;51.364;7.246;2023-09-12T13:17:40;8.63;;;6.20;;
68050;SDS011;54839;51.364;7.246;2023-09-12T13:20:06;7.20;;;6.60;;
68050;SDS011;54839;51.364;7.246;2023-09-12T13:22:33;7.27;;;6.43;;
68050;SDS011;54839;51.364;7.246;2023-09-12T13:24:59;7.33;;;6.60;;
68050;SDS011;54839;51.364;7.246;2023-09-12T13:27:24;6.47;;;5.80;;
68050;SDS011;54839;51.364;7.246;2023-09-12T13:29:50;5.50;;;5.00;;
68050;SDS011;54839;51.364;7.246;2023-09-12T13:32:15;5.53;;;5.10;;
68050;SDS011;54839;51.364;7.246;2023-09-12T13:34:43;8.50;;;7.87;;
68050;SDS011;54839;51.364;7.246;2023-09-12T13:37:09;6.83;;;6.23;;
68050;SDS011;54839;51.364;7.246;2023-09-12T13:39:34;6.80;;;6.30;;
68050;SDS011;54839;51.364;7.246;2023-09-12T13:42:00;9.73;;;8.90;;
68050;SDS011;54839;51.364;7.246;2023-09-12T13:44:28;8.43;;;7.63;;
68050;SDS011;54839;51.364;7.246;2023-09-12T13:46:53;7.20;;;6.50;;
68050;SDS011;54839;51.364;7.246;2023-09-12T13:49:19;5.97;;;5.47;;
68050;SDS011;54839;51.364;7.246;2023-09-12T13:51:45;5.43;;;5.03;;
68050;SDS011;54839;51.364;7.246;2023-09-12T13:54:10;5.73;;;5.13;;
68050;SDS011;54839;51.364;7.246;2023-09-12T13:56:40;7.00;;;6.50;;
68050;SDS011;54839;51.364;7.246;2023-09-12T13:59:06;5.33;;;4.93;;
68050;SDS011;54839;51.364;7.246;2023-09-12T14:01:32;5.80;;;5.30;;
68050;SDS011;54839;51.364;7.246;2023-09-12T14:03:58;5.30;;;4.87;;
68050;SDS011;54839;51.364;7.246;2023-09-12T14:06:23;6.60;;;5.43;;
68050;SDS011;54839;51.364;7.246;2023-09-12T14:08:49;4.90;;;4.43;;
68050;SDS011;54839;51.364;7.246;2023-09-12T14:11:14;4.40;;;4.10;;
68050;SDS011;54839;51.364;7.246;2023-09-12T14:13:40;4.93;;;4.63;;
68050;SDS011;54839;51.364;7.246;2023-09-12T14:16:06;5.70;;;4.70;;
68050;SDS011;54839;51.364;7.246;2023-09-12T14:18:31;7.10;;;4.93;;
68050;SDS011;54839;51.364;7.246;2023-09-12T14:20:57;7.63;;;5.80;;
68050;SDS011;54839;51.364;7.246;2023-09-12T14:23:22;6.20;;;5.70;;
68050;SDS011;54839;51.364;7.246;2023-09-12T14:25:48;19.57;;;6.20;;
68050;SDS011;54839;51.364;7.246;2023-09-12T14:28:14;7.13;;;6.50;;
68050;SDS011;54839;51.364;7.246;2023-09-12T14:30:39;9.43;;;8.57;;
68050;SDS011;54839;51.364;7.246;2023-09-12T14:33:09;5.80;;;5.40;;
68050;SDS011;54839;51.364;7.246;2023-09-12T14:35:35;8.77;;;8.07;;
68050;SDS011;54839;51.364;7.246;2023-09-12T14:38:01;7.90;;;7.30;;
68050;SDS011;54839;51.364;7.246;2023-09-12T14:40:27;6.53;;;6.03;;
68050;SDS011;54839;51.364;7.246;2023-09-12T14:42:53;6.80;;;6.27;;
68050;SDS011;54839;51.364;7.246;2023-09-12T14:45:19;5.30;;;4.90;;
68050;SDS011;54839;51.364;7.246;2023-09-12T14:47:44;6.50;;;6.00;;
68050;SDS011;54839;51.364;7.246;2023-09-12T14:50:10;6.93;;;6.33;;
68050;SDS011;54839;51.364;7.246;2023-09-12T14:52:36;9.40;;;8.00;;